Time;durP1;ratioP1;P1;durP2;ratioP2;P2;SDS_P1;SDS_P2;PMS_P1;PMS_P2;Temp;Humidity;BMP_temperature;BMP_pressure;BME280_temperature;BME280_humidity;BME280_pressure;Samples;Min_cycle;Max_cycle;Signal;HPM_P1;HPM_P2
2022/06/11 00:01:49;;;;;;;5.88;3.15;;;;;;;13.99;67.40;93494.88;2048144;70;20178;-72
2022/06/11 00:04:21;;;;;;;5.47;3.15;;;;;;;14.03;66.93;93490.81;2048386;70;20143;-70
2022/06/11 00:06:51;;;;;;;7.63;3.35;;;;;;;13.84;68.01;93489.69;2048273;70;20165;-71
2022/06/11 00:09:19;;;;;;;4.95;3.38;;;;;;;13.90;67.24;93495.00;2048401;69;20224;-71
2022/06/11 00:11:45;;;;;;;4.10;2.80;;;;;;;13.90;66.94;93495.00;2048087;69;20147;-70
2022/06/11 00:14:12;;;;;;;5.30;3.15;;;;;;;13.84;67.52;93500.28;2048271;70;20254;-71
2022/06/11 00:16:39;;;;;;;7.20;3.38;;;;;;;13.82;67.72;93495.22;2048104;70;20304;-71
2022/06/11 00:19:06;;;;;;;6.75;3.58;;;;;;;13.75;68.25;93495.47;2048236;70;20175;-71
2022/06/11 00:21:37;;;;;;;5.90;3.08;;;;;;;13.79;67.52;93504.97;2048634;70;20142;-72
2022/06/11 00:24:05;;;;;;;4.43;3.05;;;;;;;13.79;67.33;93504.19;2048588;70;20135;-75
2022/06/11 00:26:30;;;;;;;9.77;3.30;;;;;;;13.76;67.60;93509.00;2048508;70;20150;-73
2022/06/11 00:28:57;;;;;;;5.38;3.10;;;;;;;13.78;67.30;93516.88;2048757;70;20135;-73
2022/06/11 00:31:24;;;;;;;7.78;3.90;;;;;;;13.64;68.00;93511.81;2048954;70;20165;-74
2022/06/11 00:33:50;;;;;;;6.65;3.30;;;;;;;13.55;67.93;93509.81;2049031;70;20130;-72
2022/06/11 00:36:18;;;;;;;6.25;3.20;;;;;;;13.42;68.51;93499.84;2049153;70;20246;-75
2022/06/11 00:38:45;;;;;;;5.95;3.10;;;;;;;13.51;68.30;93500.34;2049033;70;20238;-72
2022/06/11 00:41:11;;;;;;;4.90;3.67;;;;;;;13.45;68.02;93501.44;2061959;69;20143;-72
2022/06/11 00:43:39;;;;;;;10.48;4.13;;;;;;;13.52;67.56;93496.91;2048981;70;20235;-72
2022/06/11 00:46:42;;;;;;;5.03;3.30;;;;;;;13.51;67.85;93494.69;2048904;70;20610;-74
2022/06/11 00:49:35;;;;;;;5.75;3.40;;;;;;;13.40;68.36;93498.97;2049013;70;20180;-72
2022/06/11 00:52:29;;;;;;;6.68;3.35;;;;;;;13.40;67.86;93496.16;2049218;69;20215;-73
2022/06/11 00:55:10;;;;;;;4.65;3.10;;;;;;;13.41;67.15;93497.63;2049035;69;20158;-72
2022/06/11 00:58:02;;;;;;;6.10;3.63;;;;;;;13.39;68.00;93492.59;2049068;70;20181;-73
2022/06/11 01:00:52;;;;;;;6.78;3.53;;;;;;;13.36;68.23;93493.78;2046583;69;20651;-71
2022/06/11 01:03:23;;;;;;;4.65;2.95;;;;;;;13.42;66.92;93485.72;2048994;70;20166;-74
2022/06/11 01:06:02;;;;;;;5.35;3.35;;;;;;;13.34;67.58;93488.03;2062005;69;20297;-72
2022/06/11 01:09:33;;;;;;;5.63;3.50;;;;;;;13.25;68.75;93482.47;2048907;70;20547;-74
2022/06/11 01:12:13;;;;;;;7.50;3.60;;;;;;;13.20;69.07;93475.78;2051622;70;20221;-71
2022/06/11 01:15:06;;;;;;;4.93;3.25;;;;;;;13.18;68.24;93479.22;2054245;70;20146;-74
2022/06/11 01:17:50;;;;;;;5.75;3.22;;;;;;;13.21;68.14;93482.91;2050254;69;20345;-74
2022/06/11 01:20:56;;;;;;;4.90;3.25;;;;;;;13.15;68.68;93479.72;2049022;70;20154;-73
2022/06/11 01:23:34;;;;;;;6.72;3.55;;;;;;;13.06;68.23;93469.97;2035017;70;20185;-75
2022/06/11 01:26:34;;;;;;;6.25;3.85;;;;;;;12.94;69.04;93478.41;2035041;70;20155;-74
2022/06/11 01:29:21;;;;;;;7.50;3.45;;;;;;;13.03;68.01;93476.84;2032023;70;20143;-73
2022/06/11 01:31:56;;;;;;;7.05;3.40;;;;;;;12.96;69.05;93472.88;2034453;70;20613;-71
2022/06/11 01:34:33;;;;;;;4.72;3.17;;;;;;;13.04;67.66;93472.66;2034997;70;20681;-74
2022/06/11 01:37:41;;;;;;;4.25;3.10;;;;;;;13.11;67.91;93463.22;2035027;70;20140;-73
2022/06/11 01:40:25;;;;;;;7.72;3.33;;;;;;;12.94;69.08;93472.00;2031337;70;20137;-70
2022/06/11 01:42:56;;;;;;;6.10;3.88;;;;;;;12.92;68.91;93477.53;2031793;70;20166;-70
2022/06/11 01:45:27;;;;;;;8.07;3.72;;;;;;;12.88;69.00;93474.47;2031715;70;20160;-70
2022/06/11 01:47:54;;;;;;;5.00;3.38;;;;;;;12.82;68.75;93477.59;2031772;70;20141;-74
2022/06/11 01:50:23;;;;;;;5.85;3.20;;;;;;;12.91;67.59;93473.22;2031809;70;20145;-71
2022/06/11 01:53:00;;;;;;;8.13;3.47;;;;;;;12.81;68.54;93469.75;2034594;70;20155;-73
2022/06/11 01:55:48;;;;;;;8.57;3.78;;;;;;;12.60;69.91;93470.50;2034567;70;20152;-70
2022/06/11 01:58:49;;;;;;;7.82;3.35;;;;;;;12.76;69.17;93474.41;2037458;70;20536;-70
2022/06/11 02:01:27;;;;;;;4.20;3.15;;;;;;;12.61;70.35;93469.91;2042079;70;20154;-70
2022/06/11 02:04:06;;;;;;;9.68;3.67;;;;;;;12.66;69.44;93476.56;2045492;70;20159;-71
2022/06/11 02:06:44;;;;;;;5.50;3.47;;;;;;;12.73;68.56;93473.50;2047878;70;20681;-70
2022/06/11 02:09:23;;;;;;;5.00;3.33;;;;;;;12.50;70.35;93470.56;2047690;70;20261;-70
2022/06/11 02:11:55;;;;;;;4.10;3.10;;;;;;;12.90;67.13;93477.41;2045590;70;20241;-70
2022/06/11 02:14:29;;;;;;;6.07;3.28;;;;;;;12.70;68.04;93465.53;2047408;70;20230;-72
2022/06/11 02:17:01;;;;;;;8.57;3.40;;;;;;;12.63;69.08;93458.72;2047490;70;20143;-74
2022/06/11 02:19:36;;;;;;;7.30;3.40;;;;;;;12.58;68.81;93459.81;2045377;70;20146;-74
2022/06/11 02:22:10;;;;;;;9.45;3.70;;;;;;;12.66;68.33;93468.09;2045606;70;20147;-73
2022/06/11 02:24:42;;;;;;;6.65;3.50;;;;;;;12.50;69.58;93470.56;2045528;70;20140;-73
2022/06/11 02:27:14;;;;;;;4.67;3.37;;;;;;;12.56;68.97;93473.09;2045444;70;20159;-76
2022/06/11 02:29:41;;;;;;;4.80;3.25;;;;;;;12.62;68.52;93476.28;2045338;70;20292;-71
2022/06/11 02:32:15;;;;;;;6.28;3.50;;;;;;;12.53;68.50;93468.63;2045480;70;20182;-71
2022/06/11 02:34:48;;;;;;;5.85;3.40;;;;;;;12.34;70.93;93469.53;2045447;70;20155;-72
2022/06/11 02:37:23;;;;;;;6.85;3.50;;;;;;;12.52;69.31;93472.81;2042215;70;20205;-73
2022/06/11 02:39:51;;;;;;;9.75;3.33;;;;;;;12.53;69.84;93480.66;2042149;70;20135;-72
2022/06/11 02:42:20;;;;;;;5.65;3.45;;;;;;;12.50;69.67;93464.94;2045318;70;20596;-72
2022/06/11 02:44:46;;;;;;;5.88;3.40;;;;;;;12.49;68.78;93471.19;2045286;70;20174;-74
2022/06/11 02:47:13;;;;;;;6.25;3.15;;;;;;;12.45;69.84;93472.41;2045389;70;20159;-72
2022/06/11 02:49:39;;;;;;;6.55;3.13;;;;;;;12.47;70.11;93468.97;2045186;70;20142;-72
2022/06/11 02:52:11;;;;;;;4.70;2.80;;;;;;;12.43;70.34;93477.19;2045340;70;20143;-73
2022/06/11 02:54:37;;;;;;;4.70;3.25;;;;;;;12.53;69.04;93477.13;2045481;70;20153;-71
2022/06/11 02:57:05;;;;;;;7.40;3.03;;;;;;;12.57;68.82;93472.47;2045078;70;20228;-72
2022/06/11 02:59:31;;;;;;;4.20;3.10;;;;;;;12.50;70.55;93486.78;2045157;70;20139;-72
2022/06/11 03:01:57;;;;;;;6.80;3.05;;;;;;;12.55;69.22;93482.88;2045297;70;20166;-72
2022/06/11 03:04:26;;;;;;;3.33;2.92;;;;;;;12.52;68.83;93490.50;2045394;70;20154;-71
2022/06/11 03:06:52;;;;;;;5.35;3.22;;;;;;;12.55;68.78;93492.09;2045320;70;20216;-71
2022/06/11 03:09:24;;;;;;;6.22;3.33;;;;;;;12.54;68.25;93492.72;2045219;70;20243;-75
2022/06/11 03:11:50;;;;;;;7.38;3.33;;;;;;;12.46;68.62;93495.72;2045280;70;20147;-73
2022/06/11 03:14:17;;;;;;;5.13;3.15;;;;;;;12.43;68.73;93494.13;2045020;70;20253;-72
2022/06/11 03:16:44;;;;;;;8.00;3.60;;;;;;;12.35;68.93;93499.22;2044840;70;20167;-74
2022/06/11 03:19:11;;;;;;;7.05;3.50;;;;;;;12.27;69.88;93501.50;2045271;70;20150;-74
2022/06/11 03:21:37;;;;;;;7.07;3.55;;;;;;;12.34;69.43;93509.78;2045406;70;20139;-74
2022/06/11 03:24:04;;;;;;;5.15;3.30;;;;;;;12.27;69.70;93498.69;2042001;70;20232;-75
2022/06/11 03:26:30;;;;;;;4.60;3.47;;;;;;;12.33;69.28;93505.50;2045454;70;20170;-73
2022/06/11 03:28:56;;;;;;;4.18;2.97;;;;;;;12.33;69.98;93508.31;2045326;70;20151;-72
2022/06/11 03:31:21;;;;;;;3.88;2.95;;;;;;;12.37;68.09;93511.41;2045108;70;20601;-71
2022/06/11 03:33:47;;;;;;;6.13;3.40;;;;;;;11.95;70.45;93512.81;2045432;70;20209;-72
2022/06/11 03:36:16;;;;;;;7.00;3.80;;;;;;;12.15;69.82;93509.91;2045407;70;20163;-71
2022/06/11 03:38:43;;;;;;;4.88;3.65;;;;;;;12.19;69.84;93513.75;2048452;70;20147;-73
2022/06/11 03:41:10;;;;;;;6.43;3.65;;;;;;;12.24;69.06;93511.19;2049033;70;20696;-72
2022/06/11 03:43:36;;;;;;;6.25;3.70;;;;;;;12.24;69.02;93506.28;2049008;70;20127;-72
2022/06/11 03:46:03;;;;;;;5.75;3.38;;;;;;;12.21;68.90;93513.13;2048769;70;20508;-76
2022/06/11 03:48:30;;;;;;;7.18;3.65;;;;;;;12.25;68.54;93521.13;2048736;70;20594;-76
2022/06/11 03:50:58;;;;;;;4.45;3.33;;;;;;;12.26;69.27;93523.34;2048744;70;20189;-76
2022/06/11 03:53:27;;;;;;;5.75;3.67;;;;;;;12.11;69.46;93529.38;2048798;70;20141;-74
2022/06/11 03:55:53;;;;;;;8.20;3.95;;;;;;;11.89;71.04;93523.69;2048758;70;20683;-75
2022/06/11 03:58:20;;;;;;;5.85;3.50;;;;;;;12.04;70.00;93533.84;2048704;70;20534;-73
2022/06/11 04:03:31;;;;;;;6.55;3.20;;;;;;;12.11;69.37;93541.41;2048836;70;20146;-75
2022/06/11 04:05:57;;;;;;;7.22;3.10;;;;;;;12.18;69.13;93543.28;2049243;70;20321;-74
2022/06/11 04:08:28;;;;;;;8.85;3.22;;;;;;;12.16;69.13;93548.06;2049051;70;20676;-74
2022/06/11 04:10:56;;;;;;;5.10;3.08;;;;;;;12.02;70.12;93544.28;2049188;70;20250;-74
2022/06/11 04:13:23;;;;;;;4.85;3.42;;;;;;;11.55;72.74;93546.66;2049296;70;20157;-74
2022/06/11 04:15:50;;;;;;;6.38;3.00;;;;;;;11.85;71.59;93550.88;2049035;70;20147;-76
2022/06/11 04:18:38;;;;;;;7.43;3.30;;;;;;;12.07;70.19;93557.31;2049146;70;20177;-74
2022/06/11 04:21:08;;;;;;;4.72;3.13;;;;;;;12.06;69.54;93548.13;2049130;70;20306;-72
2022/06/11 04:23:35;;;;;;;5.72;3.35;;;;;;;12.12;69.56;93559.09;2049297;70;20584;-73
2022/06/11 04:26:05;;;;;;;5.20;3.30;;;;;;;12.16;68.62;93553.72;2049063;70;20138;-73
2022/06/11 04:28:31;;;;;;;3.50;3.10;;;;;;;12.04;69.87;93553.59;2049124;70;20146;-73
2022/06/11 04:31:00;;;;;;;5.07;3.53;;;;;;;12.07;69.89;93555.25;2049063;70;20183;-73
2022/06/11 04:33:26;;;;;;;5.50;3.40;;;;;;;12.06;70.11;93555.84;2049186;70;20686;-73
2022/06/11 04:35:52;;;;;;;5.65;3.25;;;;;;;12.13;69.44;93558.47;2049031;70;20604;-75
2022/06/11 04:38:18;;;;;;;9.15;3.28;;;;;;;12.09;70.40;93560.28;2049021;70;20178;-75
2022/06/11 04:40:45;;;;;;;4.80;2.88;;;;;;;12.15;69.30;93561.44;2049040;70;20143;-73
2022/06/11 04:43:10;;;;;;;6.55;3.08;;;;;;;12.12;69.90;93561.91;2049074;70;20574;-72
2022/06/11 04:45:37;;;;;;;3.70;2.80;;;;;;;12.18;69.15;93559.50;2048969;70;20611;-73
2022/06/11 04:48:03;;;;;;;7.40;3.60;;;;;;;12.12;69.86;93564.72;2049085;70;20151;-73
2022/06/11 04:50:29;;;;;;;7.40;3.35;;;;;;;12.09;70.00;93557.44;2049117;70;20143;-73
2022/06/11 04:52:57;;;;;;;5.97;3.25;;;;;;;11.99;70.65;93556.75;2049128;70;20153;-72
2022/06/11 04:55:23;;;;;;;9.57;3.38;;;;;;;11.99;69.79;93557.50;2049250;70;20159;-72
2022/06/11 04:57:49;;;;;;;5.15;3.22;;;;;;;12.18;68.83;93556.66;2049154;70;20146;-72
2022/06/11 05:00:18;;;;;;;6.00;3.00;;;;;;;12.16;69.22;93559.38;2049059;70;20597;-73
2022/06/11 05:02:44;;;;;;;7.05;3.33;;;;;;;12.10;70.48;93556.13;2049028;70;20616;-72
2022/06/11 05:05:11;;;;;;;4.13;2.97;;;;;;;12.18;69.87;93554.59;2049035;70;20158;-72
2022/06/11 05:07:37;;;;;;;3.35;2.95;;;;;;;12.24;69.29;93559.94;2048913;70;20150;-72
2022/06/11 05:10:04;;;;;;;6.55;3.20;;;;;;;12.25;68.66;93561.41;2048805;70;20181;-73
2022/06/11 05:12:30;;;;;;;5.00;3.28;;;;;;;12.25;69.01;93558.56;2048949;70;20162;-73
2022/06/11 05:14:55;;;;;;;4.78;3.50;;;;;;;12.24;67.91;93568.41;2048735;70;20155;-73
2022/06/11 05:17:21;;;;;;;5.03;4.00;;;;;;;12.35;67.77;93562.09;2048788;70;20155;-75
2022/06/11 05:19:47;;;;;;;5.18;3.33;;;;;;;12.30;68.80;93562.41;2048883;70;20155;-73
2022/06/11 05:22:12;;;;;;;4.45;3.20;;;;;;;12.30;68.67;93557.50;2048771;70;20523;-73
2022/06/11 05:24:38;;;;;;;5.50;3.08;;;;;;;12.34;67.64;93563.44;2048750;70;20146;-74
2022/06/11 05:27:17;;;;;;;4.45;2.45;;;;;;;12.30;69.72;93560.34;2048846;70;20237;-76
2022/06/11 05:29:49;;;;;;;6.15;3.13;;;;;;;12.25;68.54;93561.41;2048672;70;20135;-72
2022/06/11 05:32:16;;;;;;;5.38;3.50;;;;;;;12.36;69.88;93565.66;2048744;70;20166;-75
2022/06/11 05:34:44;;;;;;;4.60;3.40;;;;;;;12.32;69.89;93566.09;2048858;70;20497;-74
2022/06/11 05:37:11;;;;;;;11.63;4.20;;;;;;;12.29;69.99;93564.50;2048758;70;20151;-73
2022/06/11 05:39:36;;;;;;;7.43;4.10;;;;;;;12.41;68.89;93567.41;2048940;70;20193;-76
2022/06/11 05:42:02;;;;;;;7.95;4.28;;;;;;;12.35;68.87;93567.00;2048660;70;20234;-73
2022/06/11 05:44:28;;;;;;;6.68;3.50;;;;;;;12.40;68.47;93566.66;2045288;70;20277;-72
2022/06/11 05:46:54;;;;;;;6.00;3.38;;;;;;;12.50;68.38;93563.03;2048593;70;20515;-74
2022/06/11 05:49:24;;;;;;;6.88;3.05;;;;;;;12.55;68.28;93561.97;2048670;70;20142;-74
2022/06/11 05:51:54;;;;;;;3.60;2.95;;;;;;;12.52;68.43;93563.94;2048883;70;20138;-73
2022/06/11 05:54:23;;;;;;;3.33;2.80;;;;;;;12.61;66.57;93559.56;2048668;70;20230;-74
2022/06/11 05:56:50;;;;;;;7.05;2.75;;;;;;;12.66;68.26;93559.22;2048654;70;20167;-72
2022/06/11 05:59:21;;;;;;;4.30;2.50;;;;;;;12.61;69.05;93560.31;2048750;70;20157;-74
2022/06/11 06:01:48;;;;;;;4.57;2.90;;;;;;;12.50;68.96;93566.59;2048511;70;20161;-73
2022/06/11 06:04:14;;;;;;;4.40;3.20;;;;;;;12.63;69.32;93554.78;2048649;70;20488;-75
2022/06/11 06:06:39;;;;;;;5.10;2.70;;;;;;;12.70;69.34;93550.28;2048597;70;20154;-72
2022/06/11 06:09:06;;;;;;;3.92;2.40;;;;;;;12.77;67.60;93545.78;2048742;70;20233;-74
2022/06/11 06:11:32;;;;;;;4.45;2.58;;;;;;;12.76;69.53;93549.94;2048843;70;20142;-74
2022/06/11 06:13:58;;;;;;;4.82;3.00;;;;;;;12.79;69.68;93546.66;2048948;70;20550;-73
2022/06/11 06:16:26;;;;;;;2.65;2.30;;;;;;;12.86;68.24;93547.78;2048775;70;20150;-74
2022/06/11 06:18:53;;;;;;;3.75;2.60;;;;;;;12.92;68.57;93548.94;2045610;70;20147;-74
2022/06/11 06:21:22;;;;;;;8.43;2.90;;;;;;;12.95;68.12;93535.66;2048908;70;20615;-73
2022/06/11 06:23:48;;;;;;;2.80;2.38;;;;;;;13.05;68.24;93541.97;2048924;70;20639;-72
2022/06/11 06:26:16;;;;;;;3.60;2.70;;;;;;;13.15;67.63;93544.75;2048736;70;20150;-75
2022/06/11 06:28:41;;;;;;;3.90;2.53;;;;;;;13.25;66.53;93545.41;2048902;70;20600;-75
2022/06/11 06:31:09;;;;;;;5.18;2.50;;;;;;;13.32;65.63;93541.63;2048791;70;20166;-73
2022/06/11 06:33:37;;;;;;;3.92;2.33;;;;;;;13.42;65.51;93539.44;2048917;70;20158;-73
2022/06/11 06:36:05;;;;;;;5.63;2.45;;;;;;;13.47;66.33;93537.63;2048887;70;20588;-73
2022/06/11 06:38:32;;;;;;;2.53;2.22;;;;;;;13.60;66.65;93542.66;2045556;70;20571;-74
2022/06/11 06:40:57;;;;;;;4.03;2.30;;;;;;;13.67;66.81;93538.88;2048828;70;20154;-75
2022/06/11 06:43:24;;;;;;;3.58;2.28;;;;;;;13.71;65.69;93529.91;2048791;70;20154;-73
2022/06/11 06:45:49;;;;;;;5.00;2.50;;;;;;;13.70;67.43;93528.44;2048641;70;20266;-73
2022/06/11 06:48:16;;;;;;;3.80;2.35;;;;;;;13.81;67.42;93530.53;2048791;70;20523;-73
2022/06/11 06:50:41;;;;;;;2.92;2.20;;;;;;;13.90;67.35;93532.53;2048726;70;20215;-73
2022/06/11 06:53:08;;;;;;;2.80;2.22;;;;;;;13.98;68.26;93527.38;2048783;70;20179;-73
2022/06/11 06:55:34;;;;;;;4.68;2.63;;;;;;;14.04;69.40;93523.44;2048725;70;20143;-72
2022/06/11 06:57:59;;;;;;;5.57;2.10;;;;;;;14.09;69.62;93528.72;2045501;70;20146;-72
2022/06/11 07:00:25;;;;;;;4.65;2.70;;;;;;;14.17;69.57;93517.16;2048668;70;20158;-74
2022/06/11 07:02:54;;;;;;;3.60;2.40;;;;;;;14.23;68.83;93517.50;2048726;70;20601;-75
2022/06/11 07:05:22;;;;;;;3.88;2.67;;;;;;;14.34;69.59;93513.94;2048724;70;20150;-74
2022/06/11 07:07:49;;;;;;;3.38;2.78;;;;;;;14.47;68.95;93518.97;2045377;70;20194;-74
2022/06/11 07:10:18;;;;;;;3.05;2.20;;;;;;;14.54;68.11;93522.19;2048773;70;20142;-75
2022/06/11 07:12:44;;;;;;;5.88;2.50;;;;;;;14.65;68.86;93516.50;2048731;70;20236;-73
2022/06/11 07:15:10;;;;;;;5.63;3.00;;;;;;;14.74;69.61;93520.53;2045134;70;20590;-75
2022/06/11 07:18:06;;;;;;;4.85;2.97;;;;;;;14.80;70.13;93511.66;2048588;70;20155;-73
2022/06/11 07:20:34;;;;;;;4.55;2.95;;;;;;;14.90;70.06;93509.41;2048882;69;20597;-74
2022/06/11 07:23:01;;;;;;;4.60;2.90;;;;;;;14.96;69.08;93507.66;2048681;70;20152;-75
2022/06/11 07:25:28;;;;;;;4.18;2.88;;;;;;;15.06;69.13;93509.59;2045336;70;20157;-73
2022/06/11 07:28:02;;;;;;;4.38;2.75;;;;;;;15.14;67.53;93505.13;2048518;70;20150;-72
2022/06/11 07:30:30;;;;;;;3.03;2.72;;;;;;;15.28;66.41;93507.28;2045122;70;20170;-72
2022/06/11 07:33:07;;;;;;;5.07;3.28;;;;;;;15.28;66.50;93498.78;2048672;70;20230;-73
2022/06/11 07:35:36;;;;;;;5.47;2.90;;;;;;;15.48;64.21;93494.22;2048801;70;20150;-72
2022/06/11 07:38:04;;;;;;;3.67;2.95;;;;;;;15.46;65.90;93494.88;2048736;70;20146;-73
2022/06/11 07:40:31;;;;;;;3.88;3.08;;;;;;;15.66;65.89;93500.19;2048680;70;20146;-72
2022/06/11 07:42:56;;;;;;;3.85;2.70;;;;;;;15.77;63.78;93495.84;2048767;70;20177;-72
2022/06/11 07:45:22;;;;;;;4.75;2.53;;;;;;;15.73;63.56;93487.81;2045265;70;20588;-74
2022/06/11 07:47:54;;;;;;;3.05;2.40;;;;;;;15.84;59.85;93489.84;2048631;70;20417;-74
2022/06/11 07:50:23;;;;;;;2.72;2.35;;;;;;;16.03;61.83;93483.03;2048804;70;20237;-73
2022/06/11 07:52:50;;;;;;;3.88;2.70;;;;;;;16.00;63.35;93476.53;2048670;70;20147;-74
2022/06/11 07:55:16;;;;;;;5.07;2.75;;;;;;;15.92;61.58;93481.75;2048638;70;20147;-74
2022/06/11 07:57:41;;;;;;;3.58;2.85;;;;;;;16.42;58.11;93474.44;2048601;70;20212;-74
2022/06/11 08:00:10;;;;;;;3.75;2.80;;;;;;;16.40;60.87;93470.72;2048474;70;20208;-74
2022/06/11 08:02:39;;;;;;;4.07;2.95;;;;;;;16.57;62.50;93472.31;2048637;70;20181;-73
2022/06/11 08:05:06;;;;;;;3.92;2.60;;;;;;;16.84;57.26;93474.41;2048560;70;20234;-74
2022/06/11 08:07:32;;;;;;;2.97;2.35;;;;;;;16.96;56.86;93466.47;2048703;70;20203;-74
2022/06/11 08:09:58;;;;;;;2.67;2.30;;;;;;;17.36;55.55;93464.13;2048566;70;20151;-73
2022/06/11 08:12:25;;;;;;;3.65;2.40;;;;;;;16.98;56.29;93470.16;2048676;70;20524;-74
2022/06/11 08:14:56;;;;;;;3.08;2.42;;;;;;;17.63;54.05;93466.09;2048393;70;20162;-75
2022/06/11 08:17:24;;;;;;;3.38;2.60;;;;;;;17.77;53.69;93458.25;2048724;70;20197;-75
2022/06/11 08:19:50;;;;;;;4.40;2.53;;;;;;;18.06;52.84;93459.56;2048512;70;20205;-74
2022/06/11 08:22:17;;;;;;;2.33;2.13;;;;;;;18.13;55.39;93464.88;2048633;70;20224;-75
2022/06/11 08:24:42;;;;;;;2.55;2.00;;;;;;;18.46;55.38;93461.38;2048511;70;20149;-75
2022/06/11 08:27:08;;;;;;;3.17;2.35;;;;;;;18.72;54.18;93461.03;2048520;70;20194;-74
2022/06/11 08:29:34;;;;;;;2.97;2.20;;;;;;;19.38;53.58;93468.06;2048416;70;20142;-74
2022/06/11 08:31:59;;;;;;;3.85;2.25;;;;;;;19.93;47.82;93458.81;2048599;70;20622;-74
2022/06/11 08:34:25;;;;;;;4.13;2.30;;;;;;;19.98;47.51;93465.44;2045246;70;20199;-74
2022/06/11 08:36:51;;;;;;;2.67;2.20;;;;;;;20.10;49.94;93465.88;2048496;69;20170;-75
2022/06/11 08:39:16;;;;;;;3.03;2.10;;;;;;;20.36;49.59;93462.53;2048477;70;20203;-75
2022/06/11 08:41:43;;;;;;;2.60;2.15;;;;;;;20.81;46.51;93467.75;2048473;70;20154;-76
2022/06/11 08:44:12;;;;;;;2.50;2.30;;;;;;;21.02;49.31;93455.59;2048561;70;20173;-75
2022/06/11 08:46:42;;;;;;;2.53;2.28;;;;;;;21.63;47.25;93447.56;2048241;70;20444;-75
2022/06/11 08:49:18;;;;;;;2.40;2.10;;;;;;;21.70;45.93;93438.47;2048515;70;20256;-75
2022/06/11 08:52:11;;;;;;;2.10;1.70;;;;;;;21.97;45.59;93442.16;2049010;70;20221;-76
2022/06/11 08:54:40;;;;;;;2.00;1.80;;;;;;;22.30;42.71;93444.59;2048989;70;20596;-75
2022/06/11 08:57:12;;;;;;;2.45;1.90;;;;;;;22.42;43.29;93437.75;2049097;70;20178;-74
2022/06/11 08:59:56;;;;;;;2.92;1.90;;;;;;;22.66;41.23;93446.31;2048847;70;20154;-75
2022/06/11 09:02:46;;;;;;;2.50;1.70;;;;;;;22.84;40.49;93438.94;2049134;70;20151;-74
2022/06/11 09:05:32;;;;;;;2.22;1.63;;;;;;;22.90;41.17;93429.75;2049099;70;20402;-74
2022/06/11 09:08:13;;;;;;;1.83;1.70;;;;;;;23.12;40.27;93431.75;2048967;70;20209;-76
2022/06/11 09:11:00;;;;;;;2.33;1.45;;;;;;;23.11;41.09;93419.53;2049103;70;20220;-73
2022/06/11 09:13:32;;;;;;;2.65;1.50;;;;;;;23.54;41.66;93426.34;2049203;70;20139;-74
2022/06/11 09:16:03;;;;;;;1.53;1.40;;;;;;;23.66;39.20;93426.66;2048931;70;20615;-77
2022/06/11 09:18:57;;;;;;;2.30;1.50;;;;;;;23.76;39.14;93421.13;2049107;70;20139;-74
2022/06/11 09:21:41;;;;;;;;;;;;;;;24.12;39.51;93426.25;2043185;70;20155;-76
2022/06/11 09:24:16;;;;;;;2.42;1.60;;;;;;;24.28;39.34;93417.97;2048989;70;20134;-75
2022/06/11 09:27:00;;;;;;;1.85;1.65;;;;;;;24.47;38.26;93416.22;2049015;70;20139;-74
2022/06/11 09:29:33;;;;;;;4.05;1.70;;;;;;;25.12;39.89;93416.03;2048620;70;20157;-75
2022/06/11 09:32:25;;;;;;;3.25;1.48;;;;;;;25.50;39.69;93419.56;2060847;69;20150;-72
2022/06/11 09:34:56;;;;;;;3.70;2.03;;;;;;;25.46;38.84;93415.88;2048240;70;20667;-72
2022/06/11 09:37:48;;;;;;;1.85;1.50;;;;;;;26.00;36.35;93410.25;2048123;70;20188;-74
2022/06/11 09:40:13;;;;;;;3.22;1.50;;;;;;;25.27;37.55;93411.97;2042721;70;20154;-76
2022/06/11 09:42:51;;;;;;;1.50;1.20;;;;;;;25.32;35.93;93408.44;2048197;70;20162;-75
2022/06/11 09:45:25;;;;;;;1.85;1.27;;;;;;;26.17;35.97;93407.59;2048591;70;20497;-79
2022/06/11 09:47:53;;;;;;;2.88;1.35;;;;;;;26.43;36.09;93407.22;2048993;70;20161;-77
2022/06/11 09:50:42;;;;;;;2.10;1.30;;;;;;;26.56;35.13;93409.56;2048796;70;20744;-77
2022/06/11 09:53:07;;;;;;;1.75;1.30;;;;;;;27.01;34.67;93404.31;2048755;70;20135;-76
2022/06/11 09:55:45;;;;;;;2.10;1.33;;;;;;;26.84;35.70;93406.28;2048720;70;20146;-75
2022/06/11 09:58:44;;;;;;;1.80;1.20;;;;;;;27.06;35.44;93400.00;2048760;70;20138;-75
2022/06/11 10:01:15;;;;;;;3.90;1.30;;;;;;;26.97;34.52;93397.75;2048635;70;20163;-76
2022/06/11 10:03:55;;;;;;;1.55;1.15;;;;;;;27.71;35.17;93402.06;2048887;70;20170;-73
2022/06/11 10:06:43;;;;;;;1.52;1.30;;;;;;;27.65;34.42;93399.13;2048889;70;20139;-76
2022/06/11 10:09:21;;;;;;;1.65;1.40;;;;;;;27.77;34.14;93396.34;2048943;70;20175;-77
2022/06/11 10:11:58;;;;;;;1.98;1.40;;;;;;;27.49;35.01;93396.81;2049011;70;20147;-76
2022/06/11 10:15:05;;;;;;;1.60;1.30;;;;;;;28.42;33.60;93390.25;2049000;70;20154;-77
2022/06/11 10:17:30;;;;;;;2.13;1.20;;;;;;;28.93;32.45;93387.53;2043721;70;20147;-74
2022/06/11 10:20:19;;;;;;;2.33;1.20;;;;;;;29.08;30.48;93395.56;2048929;70;20516;-76
2022/06/11 10:23:36;;;;;;;1.65;1.10;;;;;;;29.77;29.97;93394.91;2048952;70;20200;-73
2022/06/11 10:26:15;;;;;;;1.33;1.10;;;;;;;30.24;29.61;93394.91;2038018;70;20242;-75
2022/06/11 10:29:01;;;;;;;1.45;0.90;;;;;;;29.88;29.64;93390.56;2037988;70;20151;-74
2022/06/11 10:31:58;;;;;;;1.40;0.90;;;;;;;29.84;29.87;93384.06;2037911;70;20611;-74
2022/06/11 10:34:28;;;;;;;1.13;1.00;;;;;;;30.59;29.61;93378.06;2038130;70;20147;-73
2022/06/11 10:37:09;;;;;;;1.17;1.08;;;;;;;29.82;26.22;93384.75;2037866;70;20144;-73
2022/06/11 10:39:47;;;;;;;5.10;0.88;;;;;;;31.29;27.68;93378.47;2037896;70;20143;-73
2022/06/11 10:42:17;;;;;;;1.38;0.90;;;;;;;31.17;26.04;93380.72;2037988;70;20210;-73
2022/06/11 10:44:47;;;;;;;2.90;0.80;;;;;;;31.41;25.50;93374.78;2037825;70;20171;-74
2022/06/11 10:47:20;;;;;;;0.80;0.77;;;;;;;30.92;24.15;93374.31;2035126;70;20584;-73
2022/06/11 10:49:51;;;;;;;0.85;0.85;;;;;;;31.21;24.86;93374.91;2037883;70;20160;-74
2022/06/11 10:52:48;;;;;;;0.77;0.70;;;;;;;32.24;24.60;93379.16;2037730;70;20179;-73
2022/06/11 10:55:22;;;;;;;1.95;0.80;;;;;;;32.37;22.42;93379.78;2035001;70;20597;-74
2022/06/11 10:57:51;;;;;;;1.77;0.70;;;;;;;34.30;23.43;93373.41;2048763;70;20146;-78
2022/06/11 11:00:21;;;;;;;1.55;0.70;;;;;;;35.87;21.00;93378.19;2048641;70;20150;-75
2022/06/11 11:02:56;;;;;;;0.70;0.50;;;;;;;38.59;18.53;93380.50;2048835;70;20191;-74
2022/06/11 11:05:22;;;;;;;1.23;0.73;;;;;;;39.64;16.77;93375.19;2045501;70;20221;-73
2022/06/11 11:07:50;;;;;;;0.63;0.63;;;;;;;39.80;15.55;93376.06;2048705;70;20497;-74
2022/06/11 11:10:21;;;;;;;2.25;0.75;;;;;;;41.78;15.18;93382.94;2048831;70;20147;-74
2022/06/11 11:12:51;;;;;;;0.52;0.50;;;;;;;40.30;13.99;93376.22;2048692;70;20123;-74
2022/06/11 11:15:21;;;;;;;0.90;0.70;;;;;;;42.40;15.28;93371.84;2048697;70;20151;-74
2022/06/11 11:18:01;;;;;;;2.97;0.60;;;;;;;42.52;14.55;93365.31;2048754;70;20151;-73
2022/06/11 11:20:37;;;;;;;0.80;0.60;;;;;;;38.61;15.14;93359.13;2048965;70;20174;-75
2022/06/11 11:23:09;;;;;;;1.45;0.60;;;;;;;40.72;14.93;93360.47;2048823;70;20142;-74
2022/06/11 11:25:39;;;;;;;;;;;;;;;44.49;12.61;93356.09;2049002;70;20142;-77
2022/06/11 11:28:26;;;;;;;1.58;0.50;;;;;;;44.31;12.80;93363.06;2048781;70;20166;-74
2022/06/11 11:31:07;;;;;;;0.52;0.52;;;;;;;41.87;12.81;93348.53;2048682;70;20173;-74
2022/06/11 11:33:37;;;;;;;0.57;0.47;;;;;;;43.06;13.20;93346.25;2048774;70;20162;-74
2022/06/11 11:36:14;;;;;;;0.77;0.60;;;;;;;42.66;13.32;93349.09;2048786;70;20139;-75
2022/06/11 11:38:41;;;;;;;0.90;0.70;;;;;;;42.81;13.42;93343.84;2045471;70;20504;-76
2022/06/11 11:41:20;;;;;;;1.17;0.50;;;;;;;44.34;11.82;93347.28;2048903;70;20134;-75
2022/06/11 11:43:46;;;;;;;1.85;0.50;;;;;;;43.10;11.53;93337.13;2048853;70;20185;-74
2022/06/11 11:46:19;;;;;;;0.68;0.52;;;;;;;44.65;11.97;93339.59;2048626;70;20233;-76
2022/06/11 11:48:49;;;;;;;1.75;0.70;;;;;;;42.26;11.55;93328.91;2048739;70;20643;-78
2022/06/11 11:51:32;;;;;;;0.85;0.50;;;;;;;42.02;11.67;93330.13;2048747;70;20216;-73
2022/06/11 11:54:00;;;;;;;3.10;0.70;;;;;;;42.90;11.66;93329.34;2048968;70;20139;-77
2022/06/11 11:56:31;;;;;;;0.60;0.60;;;;;;;45.10;12.38;93336.88;2048822;70;20540;-75
2022/06/11 11:59:02;;;;;;;1.15;0.60;;;;;;;42.63;12.49;93321.13;2048884;70;20166;-74
2022/06/11 12:01:29;;;;;;;0.80;0.65;;;;;;;43.83;11.99;93323.53;2048594;70;20608;-74